Startpagina
METAR-TAF:

METAR-TAF

Vliegvelden :

Brize Norton, Engeland

breedte: 51-45N, lengte: 001-35W, hoogte: 88 m

Actueel weer

Dit bericht is 30 minuten geleden gemaakt, om 13:22 UTC
Wind 7 kt uit het zuidoosten
Temperatuur 23°C
Vochtigheid 38%
Druk 1023 hPa
Zicht 10 km of meer
geen wolken onder 1500 m en geen cumulonimbus

METAR: EGVN 101322Z 14007KT CAVOK 23/08 Q1023 NOSIG RMK BLU BLU

Tijdstip: 14:52 (13:52 UTC)

Verwachting

Dit bericht is 3 uur en het 25 minuten geleden gemaakt, om 10:27 UTC
Verwachting geldig van 10 om 12 UTC tot 11 om 12 UTC
Wind 8 kt uit het zuidoosten
Zicht 10 km of meer
geen wolken onder 1500 m en geen cumulonimbus
Kans 30%
van 11 om 04 UTC tot 11 om 10 UTC
Zicht: 5000 m
Heiigheid

TAF: EGVN 101027Z 1012/1112 13008KT CAVOK PROB30 1104/1110 5000 HZ

Waarnemingen en weersverwachtingen van meer dan 4000 vliegvelden (METAR en TAF).

De beschikbare stations zijn de gele en rode punten op de kaart.

Ga met uw muis naar het station om de naam te zien.

Klik dan om waarnemingen en weersverwachtingen te zien.

kaart wijzigen: klik op de groene knoppen met een zwart kruis om in te zoomen, op de groene knop met een streepje om uit te zoomen of op de groene pijlen voor aangrenzende kaarten.


METAR-TAF: